Time;durP1;ratioP1;P1;durP2;ratioP2;P2;SDS_P1;SDS_P2;PMS_P1;PMS_P2;Temp;Humidity;BMP_temperature;BMP_pressure;BME280_temperature;BME280_humidity;BME280_pressure;Samples;Min_cycle;Max_cycle;Signal;HPM_P1;HPM_P2
2024/01/20 00:02:01;;;;;;;;;;;;;;;-1.32;100.00;97258.08;110401;1241;68340;-57
2024/01/20 00:04:31;;;;;;;;;;;;;;;-1.28;100.00;97262.23;110475;1241;60476;-56
2024/01/20 00:07:02;;;;;;;;;;;;;;;-1.27;100.00;97262.89;110351;1242;60475;-58
2024/01/20 00:09:32;;;;;;;;;;;;;;;-1.23;100.00;97268.77;110366;1241;72745;-57
2024/01/20 00:12:14;;;;;;;;;;;;;;;-1.25;100.00;97268.48;110393;1241;69075;-57
2024/01/20 00:14:46;;;;;;;;;;;;;;;-1.27;100.00;97274.52;110382;1241;69645;-56
2024/01/20 00:17:16;;;;;;;;;;;;;;;-1.36;100.00;97271.51;110491;1238;60564;-56
2024/01/20 00:19:55;;;;;;;;;;;;;;;-1.31;100.00;97260.92;110486;1241;60495;-57
2024/01/20 00:22:26;;;;;;;;;;;;;;;-1.28;100.00;97255.91;110516;1241;72174;-58
2024/01/20 00:25:02;;;;;;;;;;;;;;;-1.28;100.00;97261.70;110419;1242;69743;-58
2024/01/20 00:27:34;;;;;;;;;;;;;;;-1.26;100.00;97271.90;110361;1242;69109;-57
2024/01/20 00:30:03;;;;;;;;;;;;;;;-1.25;100.00;97281.29;110389;1241;60543;-57
2024/01/20 00:32:34;;;;;;;;;;;;;;;-1.24;100.00;97289.65;110414;1240;60500;-58
2024/01/20 00:35:04;;;;;;;;;;;;;;;-1.24;100.00;97286.23;110448;1242;71431;-59
2024/01/20 00:37:37;;;;;;;;;;;;;;;-1.23;100.00;97284.48;110522;1241;68751;-63
2024/01/20 00:40:07;;;;;;;;;;;;;;;-1.19;100.00;97285.56;110423;1239;69068;-59
2024/01/20 00:42:37;;;;;;;;;;;;;;;-1.17;100.00;97283.79;110565;1241;60495;-59
2024/01/20 00:45:07;;;;;;;;;;;;;;;-1.17;100.00;97283.45;110544;1241;60844;-58
2024/01/20 00:47:38;;;;;;;;;;;;;;;-1.26;100.00;97285.92;110499;1242;72651;-59
2024/01/20 00:50:09;;;;;;;;;;;;;;;-1.16;100.00;97298.15;110538;1241;69288;-57
2024/01/20 00:52:40;;;;;;;;;;;;;;;-1.15;100.00;97299.48;110428;1241;68534;-58
2024/01/20 00:55:10;;;;;;;;;;;;;;;-1.15;100.00;97298.44;110487;1239;60547;-57
2024/01/20 00:57:42;;;;;;;;;;;;;;;-1.11;100.00;97303.83;110391;1241;60494;-58
2024/01/20 01:00:13;;;;;;;;;;;;;;;-1.07;100.00;97307.11;110527;1238;71494;-58
2024/01/20 01:02:48;;;;;;;;;;;;;;;-1.03;100.00;97308.20;110549;1241;68491;-57
2024/01/20 01:05:20;;;;;;;;;;;;;;;-1.00;100.00;97311.38;110469;1242;69410;-56
2024/01/20 01:07:52;;;;;;;;;;;;;;;-0.98;100.00;97319.36;110520;1240;60536;-57
2024/01/20 01:10:24;;;;;;;;;;;;;;;-0.95;100.00;97322.70;110446;1242;60557;-59
2024/01/20 01:12:56;;;;;;;;;;;;;;;-0.93;100.00;97331.71;110458;1241;72739;-57
2024/01/20 01:15:29;;;;;;;;;;;;;;;-0.92;100.00;97328.95;110488;1241;69866;-58
2024/01/20 01:17:58;;;;;;;;;;;;;;;-0.92;100.00;97327.41;110373;1241;69970;-58
2024/01/20 01:20:30;;;;;;;;;;;;;;;-0.91;100.00;97336.11;110471;1248;60567;-57
2024/01/20 01:23:00;;;;;;;;;;;;;;;-0.88;100.00;97346.95;110593;1245;60567;-58
2024/01/20 01:25:31;;;;;;;;;;;;;;;-0.84;100.00;97346.86;110482;1241;72229;-58
2024/01/20 01:28:03;;;;;;;;;;;;;;;-0.83;100.00;97345.79;110520;1243;69076;-56
2024/01/20 01:30:37;;;;;;;;;;;;;;;-0.81;100.00;97345.39;110525;1241;69260;-59
2024/01/20 01:33:08;;;;;;;;;;;;;;;-0.81;100.00;97344.36;110371;1241;60623;-57
2024/01/20 01:35:40;;;;;;;;;;;;;;;-0.79;100.00;97342.44;110461;1241;60482;-57
2024/01/20 01:38:11;;;;;;;;;;;;;;;-0.78;100.00;97350.45;110469;1241;72592;-57
2024/01/20 01:40:43;;;;;;;;;;;;;;;-0.78;100.00;97364.15;110438;1240;69248;-57
2024/01/20 01:43:13;;;;;;;;;;;;;;;-0.82;100.00;97368.53;110336;1241;69061;-58
2024/01/20 01:45:46;;;;;;;;;;;;;;;-0.85;100.00;97370.16;110381;1242;60488;-57
2024/01/20 01:48:18;;;;;;;;;;;;;;;-0.89;100.00;97374.87;110365;1240;60492;-57
2024/01/20 01:50:49;;;;;;;;;;;;;;;-0.88;100.00;97376.92;110389;1242;71428;-57
2024/01/20 01:53:20;;;;;;;;;;;;;;;-0.92;100.00;97381.65;110479;1242;69088;-58
2024/01/20 01:55:51;;;;;;;;;;;;;;;-0.90;100.00;97388.43;110352;1241;68414;-59
2024/01/20 01:58:22;;;;;;;;;;;;;;;-0.87;100.00;97392.45;110392;1241;60553;-58
2024/01/20 02:00:53;;;;;;;;;;;;;;;-0.87;100.00;97396.73;110462;1242;60478;-57
2024/01/20 02:03:24;;;;;;;;;;;;;;;-0.86;100.00;97398.92;110350;1242;72208;-58
2024/01/20 02:05:55;;;;;;;;;;;;;;;-0.85;100.00;97412.42;110382;1238;69114;-58
2024/01/20 02:08:27;;;;;;;;;;;;;;;-0.86;100.00;97422.20;110473;1242;69635;-57
2024/01/20 02:10:57;;;;;;;;;;;;;;;-0.86;100.00;97427.15;110580;1242;60614;-57
2024/01/20 02:13:28;;;;;;;;;;;;;;;-0.86;100.00;97434.34;110493;1241;60494;-59
2024/01/20 02:15:58;;;;;;;;;;;;;;;-0.87;100.00;97443.77;110544;1241;72205;-58
2024/01/20 02:18:31;;;;;;;;;;;;;;;-0.86;100.00;97449.40;110312;1242;69076;-58
2024/01/20 02:21:06;;;;;;;;;;;;;;;-0.87;100.00;97452.52;110359;1238;68625;-58
2024/01/20 02:23:41;;;;;;;;;;;;;;;-0.88;100.00;97456.64;110531;1241;60470;-55
2024/01/20 02:26:11;;;;;;;;;;;;;;;-0.90;100.00;97461.32;110491;1241;60557;-57
2024/01/20 02:28:41;;;;;;;;;;;;;;;-0.91;100.00;97466.64;110459;1241;72162;-57
2024/01/20 02:31:12;;;;;;;;;;;;;;;-0.93;100.00;97464.98;110432;1241;69333;-57
2024/01/20 02:33:42;;;;;;;;;;;;;;;-0.96;100.00;97467.45;110516;1248;69184;-57
2024/01/20 02:36:13;;;;;;;;;;;;;;;-0.99;100.00;97471.31;110490;1241;60595;-58
2024/01/20 02:38:45;;;;;;;;;;;;;;;-1.00;100.00;97481.42;110516;1243;60478;-57
2024/01/20 02:41:18;;;;;;;;;;;;;;;-1.04;100.00;97481.34;110388;1242;72195;-58
2024/01/20 02:43:48;;;;;;;;;;;;;;;-1.08;100.00;97489.84;110454;1241;69320;-58
2024/01/20 02:46:21;;;;;;;;;;;;;;;-1.09;100.00;97487.11;110429;1241;69314;-58
2024/01/20 02:48:53;;;;;;;;;;;;;;;-1.12;100.00;97480.52;110486;1241;60539;-58
2024/01/20 02:51:23;;;;;;;;;;;;;;;-1.14;100.00;97489.80;110463;1238;60537;-57
2024/01/20 02:53:55;;;;;;;;;;;;;;;-1.18;100.00;97489.91;110422;1241;72206;-57
2024/01/20 02:56:26;;;;;;;;;;;;;;;-1.22;100.00;97492.23;110445;1241;69176;-56
2024/01/20 02:58:57;;;;;;;;;;;;;;;-1.24;100.00;97498.44;110565;1241;68518;-56
2024/01/20 03:01:28;;;;;;;;;;;;;;;-1.23;100.00;97511.09;110456;1243;60611;-54
2024/01/20 03:03:59;;;;;;;;;;;;;;;-1.22;100.00;97507.12;110489;1241;60457;-56
2024/01/20 03:06:31;;;;;;;;;;;;;;;-1.25;100.00;97513.17;110535;1241;72944;-59
2024/01/20 03:09:00;;;;;;;;;;;;;;;-1.24;100.00;97515.39;110609;1240;69288;-59
2024/01/20 03:11:32;;;;;;;;;;;;;;;-1.22;100.00;97526.44;110527;1241;68485;-60
2024/01/20 03:14:02;;;;;;;;;;;;;;;-1.23;100.00;97537.39;110487;1241;60492;-58
2024/01/20 03:16:33;;;;;;;;;;;;;;;-1.21;100.00;97554.47;110532;1242;60475;-58
2024/01/20 03:19:03;;;;;;;;;;;;;;;-1.22;100.00;97558.08;110505;1241;72376;-59
2024/01/20 03:21:34;;;;;;;;;;;;;;;-1.23;100.00;97547.17;110593;1241;68627;-58
2024/01/20 03:24:05;;;;;;;;;;;;;;;-1.24;100.00;97548.90;110531;1242;69274;-57
2024/01/20 03:26:35;;;;;;;;;;;;;;;-1.24;100.00;97557.11;110525;1241;60518;-60
2024/01/20 03:29:05;;;;;;;;;;;;;;;-1.25;100.00;97556.77;110452;1242;60420;-58
2024/01/20 03:31:35;;;;;;;;;;;;;;;-1.27;100.00;97562.30;110531;1241;72219;-60
2024/01/20 03:34:06;;;;;;;;;;;;;;;-1.26;100.00;97566.70;110458;1241;68683;-59
2024/01/20 03:36:36;;;;;;;;;;;;;;;-1.26;100.00;97570.64;110526;1241;69508;-60
2024/01/20 03:39:06;;;;;;;;;;;;;;;-1.25;100.00;97576.95;110429;1241;60521;-58
2024/01/20 03:41:36;;;;;;;;;;;;;;;-1.25;100.00;97579.17;110437;1238;60933;-57
2024/01/20 03:44:08;;;;;;;;;;;;;;;-1.26;100.00;97571.33;110465;1240;72741;-58
2024/01/20 03:46:37;;;;;;;;;;;;;;;-1.25;100.00;97577.48;110444;1241;68578;-58
2024/01/20 03:49:07;;;;;;;;;;;;;;;-1.26;100.00;97581.42;110485;1241;68364;-58
2024/01/20 03:51:37;;;;;;;;;;;;;;;-1.24;100.00;97588.05;110571;1241;60547;-59
2024/01/20 03:54:08;;;;;;;;;;;;;;;-1.25;100.00;97590.63;110477;1239;60507;-58
2024/01/20 03:56:43;;;;;;;;;;;;;;;-1.23;100.00;97599.15;110421;1241;71691;-57
2024/01/20 03:59:15;;;;;;;;;;;;;;;-1.23;100.00;97600.17;110371;1241;69728;-58
2024/01/20 04:01:46;;;;;;;;;;;;;;;-1.22;100.00;97604.59;110342;1240;69311;-56
2024/01/20 04:04:17;;;;;;;;;;;;;;;-1.22;100.00;97610.23;110344;1241;60431;-58
2024/01/20 04:06:48;;;;;;;;;;;;;;;-1.21;100.00;97611.07;110360;1246;60543;-58
2024/01/20 04:09:19;;;;;;;;;;;;;;;-1.23;100.00;97615.23;110369;1241;72022;-58
2024/01/20 04:11:49;;;;;;;;;;;;;;;-1.20;100.00;97625.60;110390;1241;69205;-58
2024/01/20 04:14:20;;;;;;;;;;;;;;;-1.21;100.00;97630.21;110282;1241;69613;-57
2024/01/20 04:16:49;;;;;;;;;;;;;;;-1.21;100.00;97635.86;110415;1241;60610;-58
2024/01/20 04:19:19;;;;;;;;;;;;;;;-1.21;100.00;97634.50;110464;1247;60542;-58
2024/01/20 04:21:50;;;;;;;;;;;;;;;-1.24;100.00;97640.05;110365;1241;72201;-54
2024/01/20 04:24:20;;;;;;;;;;;;;;;-1.26;100.00;97651.03;110405;1243;69212;-57
2024/01/20 04:26:51;;;;;;;;;;;;;;;-1.29;100.00;97652.81;110528;1241;68526;-57
2024/01/20 04:29:21;;;;;;;;;;;;;;;-1.32;100.00;97653.70;110492;1242;60553;-57
2024/01/20 04:31:52;;;;;;;;;;;;;;;-1.34;100.00;97659.06;110489;1238;60399;-58
2024/01/20 04:34:25;;;;;;;;;;;;;;;-1.37;100.00;97663.73;110464;1241;72537;-56
2024/01/20 04:36:56;;;;;;;;;;;;;;;-1.37;100.00;97669.73;110516;1238;69270;-55
2024/01/20 04:39:27;;;;;;;;;;;;;;;-1.40;100.00;97673.20;110438;1241;69245;-55
2024/01/20 04:41:58;;;;;;;;;;;;;;;-1.42;100.00;97676.34;110417;1241;60474;-54
2024/01/20 04:44:28;;;;;;;;;;;;;;;-1.45;100.00;97686.14;110406;1241;60390;-57
2024/01/20 04:46:59;;;;;;;;;;;;;;;-1.47;100.00;97697.47;110440;1248;71611;-58
2024/01/20 04:49:29;;;;;;;;;;;;;;;-1.50;100.00;97705.06;110453;1241;69614;-58
2024/01/20 04:52:01;;;;;;;;;;;;;;;-1.54;100.00;97708.38;110391;1241;69294;-58
2024/01/20 04:54:31;;;;;;;;;;;;;;;-1.56;100.00;97712.17;110389;1244;60556;-56
2024/01/20 04:57:01;;;;;;;;;;;;;;;-1.60;100.00;97707.30;110419;1241;60444;-58
2024/01/20 04:59:31;;;;;;;;;;;;;;;-1.62;100.00;97711.43;110428;1241;72014;-56
2024/01/20 05:02:02;;;;;;;;;;;;;;;-1.64;100.00;97719.83;110432;1239;68537;-58
2024/01/20 05:04:31;;;;;;;;;;;;;;;-1.67;100.00;97732.71;110456;1242;68555;-57
2024/01/20 05:07:02;;;;;;;;;;;;;;;-1.69;100.00;97741.33;110587;1242;60495;-56
2024/01/20 05:09:33;;;;;;;;;;;;;;;-1.72;100.00;97734.88;110556;1238;60476;-56
2024/01/20 05:12:03;;;;;;;;;;;;;;;-1.76;100.00;97736.65;110491;1241;71275;-57
2024/01/20 05:14:34;;;;;;;;;;;;;;;-1.80;100.00;97740.83;110512;1242;69235;-57
2024/01/20 05:17:05;;;;;;;;;;;;;;;-1.85;100.00;97743.48;110387;1238;68893;-58
2024/01/20 05:19:37;;;;;;;;;;;;;;;-1.88;100.00;97754.81;110270;1242;60549;-58
2024/01/20 05:22:07;;;;;;;;;;;;;;;-1.87;100.00;97759.91;110359;1241;60522;-56
2024/01/20 05:24:37;;;;;;;;;;;;;;;-1.89;100.00;97763.20;110358;1241;71425;-55
2024/01/20 05:27:07;;;;;;;;;;;;;;;-1.92;100.00;97764.46;110413;1241;69154;-55
2024/01/20 05:29:38;;;;;;;;;;;;;;;-1.95;100.00;97771.52;110362;1241;68701;-57
2024/01/20 05:32:10;;;;;;;;;;;;;;;-2.01;100.00;97772.98;110352;1240;60540;-59
2024/01/20 05:34:40;;;;;;;;;;;;;;;-2.06;100.00;97773.91;110353;1248;60469;-57
2024/01/20 05:37:09;;;;;;;;;;;;;;;-2.07;100.00;97782.13;110322;1238;72285;-57
2024/01/20 05:39:40;;;;;;;;;;;;;;;-2.12;100.00;97783.40;110445;1239;68385;-56
2024/01/20 05:42:11;;;;;;;;;;;;;;;-2.15;100.00;97783.61;110343;1244;69878;-57
2024/01/20 05:44:40;;;;;;;;;;;;;;;-2.19;100.00;97787.45;110437;1242;60460;-57
2024/01/20 05:47:11;;;;;;;;;;;;;;;-2.24;100.00;97786.67;110386;1241;60911;-57
2024/01/20 05:49:40;;;;;;;;;;;;;;;-2.28;100.00;97791.86;110482;1241;72188;-57
2024/01/20 05:52:10;;;;;;;;;;;;;;;-2.32;100.00;97791.09;110451;1241;68630;-57
2024/01/20 05:54:39;;;;;;;;;;;;;;;-2.36;100.00;97794.19;110414;1241;70196;-58
2024/01/20 05:57:10;;;;;;;;;;;;;;;-2.40;100.00;97800.41;110492;1238;60469;-57
2024/01/20 05:59:39;;;;;;;;;;;;;;;-2.46;100.00;97802.88;110440;1241;60542;-57
2024/01/20 06:02:09;;;;;;;;;;;;;;;-2.49;100.00;97806.86;110369;1238;72416;-54
2024/01/20 06:04:39;;;;;;;;;;;;;;;-2.53;100.00;97798.04;110400;1242;69301;-57
2024/01/20 06:07:08;;;;;;;;;;;;;;;-2.58;100.00;97795.04;110364;1238;68603;-54
2024/01/20 06:09:37;;;;;;;;;;;;;;;-2.64;100.00;97797.67;110481;1242;60494;-55
2024/01/20 06:12:07;;;;;;;;;;;;;;;-2.70;100.00;97801.52;110478;1242;60576;-57
2024/01/20 06:14:36;;;;;;;;;;;;;;;-2.71;100.00;97804.09;110439;1242;72196;-57
2024/01/20 06:17:05;;;;;;;;;;;;;;;-2.73;100.00;97808.73;110472;1241;69402;-56
2024/01/20 06:19:36;;;;;;;;;;;;;;;-2.74;100.00;97815.40;110449;1242;69377;-57
2024/01/20 06:22:06;;;;;;;;;;;;;;;-2.75;100.00;97826.16;110422;1238;60472;-58
2024/01/20 06:24:35;;;;;;;;;;;;;;;-2.78;100.00;97832.50;110423;1241;60472;-56
2024/01/20 06:27:05;;;;;;;;;;;;;;;-2.80;100.00;97839.89;110365;1241;71435;-56
2024/01/20 06:29:39;;;;;;;;;;;;;;;-2.81;100.00;97845.35;110380;1238;69274;-57
2024/01/20 06:32:08;;;;;;;;;;;;;;;-2.82;100.00;97853.38;110442;1241;68176;-58
2024/01/20 06:34:37;;;;;;;;;;;;;;;-2.83;100.00;97852.35;110436;1238;60470;-57
2024/01/20 06:37:07;;;;;;;;;;;;;;;-2.83;100.00;97859.00;110401;1238;60425;-55
2024/01/20 06:39:39;;;;;;;;;;;;;;;-2.83;100.00;97869.76;110364;1241;72117;-57
2024/01/20 06:42:10;;;;;;;;;;;;;;;-2.83;100.00;97866.84;110430;1238;69717;-58
2024/01/20 06:44:39;;;;;;;;;;;;;;;-2.83;100.00;97872.48;110361;1238;68492;-58
2024/01/20 06:47:09;;;;;;;;;;;;;;;-2.83;100.00;97881.87;110412;1241;60483;-55
2024/01/20 06:49:41;;;;;;;;;;;;;;;-2.82;100.00;97884.42;110457;1241;60513;-57
2024/01/20 06:52:11;;;;;;;;;;;;;;;-2.83;100.00;97895.02;110326;1238;72868;-57
2024/01/20 06:54:40;;;;;;;;;;;;;;;-2.82;100.00;97897.55;110383;1241;69412;-55
2024/01/20 06:57:09;;;;;;;;;;;;;;;-2.82;100.00;97899.94;110416;1242;70539;-56
2024/01/20 06:59:39;;;;;;;;;;;;;;;-2.79;100.00;97908.27;110345;1238;60489;-56
2024/01/20 07:02:08;;;;;;;;;;;;;;;-2.79;100.00;97913.90;110365;1241;60449;-57
2024/01/20 07:04:37;;;;;;;;;;;;;;;-2.78;100.00;97919.17;110405;1238;72765;-57
2024/01/20 07:07:06;;;;;;;;;;;;;;;-2.75;100.00;97923.59;110368;1238;69224;-57
2024/01/20 07:09:38;;;;;;;;;;;;;;;-2.76;100.00;97935.36;110346;1238;69051;-56
2024/01/20 07:12:07;;;;;;;;;;;;;;;-2.74;100.00;97938.23;110368;1243;60489;-58
2024/01/20 07:14:36;;;;;;;;;;;;;;;-2.73;100.00;97944.55;110397;1242;60522;-54
2024/01/20 07:17:06;;;;;;;;;;;;;;;-2.70;100.00;97948.44;110441;1242;72164;-57
2024/01/20 07:19:35;;;;;;;;;;;;;;;-2.67;100.00;97957.95;110376;1241;69823;-55
2024/01/20 07:22:04;;;;;;;;;;;;;;;-2.65;100.00;97965.59;110404;1238;68531;-54
2024/01/20 07:24:33;;;;;;;;;;;;;;;-2.61;100.00;97970.66;110359;1238;60551;-56
2024/01/20 07:27:03;;;;;;;;;;;;;;;-2.58;100.00;97974.05;110400;1241;60480;-55
2024/01/20 07:29:32;;;;;;;;;;;;;;;-2.56;100.00;97977.44;110415;1241;72840;-57
2024/01/20 07:32:01;;;;;;;;;;;;;;;-2.57;100.00;97989.41;110415;1238;70222;-58
2024/01/20 07:34:31;;;;;;;;;;;;;;;-2.54;100.00;97993.64;110384;1238;68443;-56
2024/01/20 07:37:01;;;;;;;;;;;;;;;-2.48;100.00;98000.40;110377;1238;60540;-57
2024/01/20 07:39:30;;;;;;;;;;;;;;;-2.46;100.00;98001.91;110484;1241;60546;-58
2024/01/20 07:41:59;;;;;;;;;;;;;;;-2.42;100.00;98015.86;110483;1241;72777;-55
2024/01/20 07:44:29;;;;;;;;;;;;;;;-2.41;100.00;98019.77;110548;1243;68354;-57
2024/01/20 07:46:59;;;;;;;;;;;;;;;-2.54;100.00;98022.83;110465;1238;69995;-59
2024/01/20 07:49:29;;;;;;;;;;;;;;;-2.65;100.00;98024.48;110476;1242;60470;-57
2024/01/20 07:51:58;;;;;;;;;;;;;;;-2.54;100.00;98027.77;110474;1242;60537;-59
2024/01/20 07:54:27;;;;;;;;;;;;;;;-2.50;100.00;98030.12;110441;1241;72766;-54
2024/01/20 07:56:57;;;;;;;;;;;;;;;-2.44;100.00;98031.42;110518;1241;69282;-58
2024/01/20 07:59:26;;;;;;;;;;;;;;;-2.35;100.00;98032.52;110433;1238;69837;-57
2024/01/20 08:01:54;;;;;;;;;;;;;;;-2.29;100.00;98031.43;110468;1238;60508;-55
2024/01/20 08:04:24;;;;;;;;;;;;;;;-2.22;100.00;98033.38;110511;1238;60469;-55
2024/01/20 08:06:55;;;;;;;;;;;;;;;-2.13;100.00;98042.15;110489;1241;72787;-57
2024/01/20 08:09:24;;;;;;;;;;;;;;;-2.03;100.00;98042.04;110478;1241;69802;-57
2024/01/20 08:11:53;;;;;;;;;;;;;;;-1.82;100.00;98037.15;110468;1238;69224;-58
2024/01/20 08:14:22;;;;;;;;;;;;;;;-1.71;100.00;98044.86;110461;1241;60486;-58
2024/01/20 08:16:51;;;;;;;;;;;;;;;-1.48;100.00;98048.96;110502;1241;60940;-58
2024/01/20 08:19:20;;;;;;;;;;;;;;;-0.88;100.00;98052.13;110472;1241;72889;-58
2024/01/20 08:21:49;;;;;;;;;;;;;;;-0.29;99.76;98051.06;110481;1242;69628;-58
2024/01/20 08:24:19;;;;;;;;;;;;;;;0.36;94.57;98049.04;110420;1246;69185;-58
2024/01/20 08:26:48;;;;;;;;;;;;;;;1.30;94.65;98048.68;110404;1241;60541;-60
2024/01/20 08:29:19;;;;;;;;;;;;;;;2.00;91.72;98052.33;110412;1241;60465;-60
2024/01/20 08:31:49;;;;;;;;;;;;;;;2.54;88.86;98053.30;110474;1241;72028;-60
2024/01/20 08:34:18;;;;;;;;;;;;;;;2.54;76.22;98058.48;110443;1241;69779;-60
2024/01/20 08:36:47;;;;;;;;;;;;;;;3.37;74.05;98064.61;110581;1241;69830;-60
2024/01/20 08:39:18;;;;;;;;;;;;;;;3.91;70.73;98067.05;110524;1239;60548;-60
2024/01/20 08:41:48;;;;;;;;;;;;;;;4.74;70.67;98067.44;110496;1241;60491;-61
2024/01/20 08:44:17;;;;;;;;;;;;;;;5.07;62.21;98073.17;110351;1238;72916;-61
2024/01/20 08:46:47;;;;;;;;;;;;;;;5.76;62.82;98079.33;110441;1238;69684;-61
2024/01/20 08:49:16;;;;;;;;;;;;;;;6.13;59.21;98077.04;110344;1238;69372;-61
2024/01/20 08:51:46;;;;;;;;;;;;;;;6.58;57.96;98076.55;110396;1241;60487;-61
2024/01/20 08:54:16;;;;;;;;;;;;;;;6.15;58.10;98078.81;110410;1241;60488;-61
2024/01/20 08:56:47;;;;;;;;;;;;;;;5.46;57.21;98082.13;110360;1238;72141;-61
2024/01/20 08:59:18;;;;;;;;;;;;;;;5.19;59.43;98089.61;110427;1238;69789;-60
2024/01/20 09:01:47;;;;;;;;;;;;;;;4.98;59.95;98088.74;110476;1242;69733;-61
2024/01/20 09:04:15;;;;;;;;;;;;;;;5.11;59.94;98098.08;110414;1241;60566;-61
2024/01/20 09:06:45;;;;;;;;;;;;;;;5.02;58.29;98104.50;110387;1241;60430;-60
2024/01/20 09:09:14;;;;;;;;;;;;;;;4.27;59.85;98110.10;110396;1241;72714;-57
2024/01/20 09:11:43;;;;;;;;;;;;;;;4.45;61.80;98113.73;110400;1241;69220;-60
2024/01/20 09:14:13;;;;;;;;;;;;;;;5.40;59.89;98114.18;110346;1238;69289;-60
2024/01/20 09:16:42;;;;;;;;;;;;;;;5.97;57.67;98109.05;110431;1238;60482;-60
2024/01/20 09:19:11;;;;;;;;;;;;;;;6.75;59.45;98107.13;110303;1242;60526;-59
2024/01/20 09:21:43;;;;;;;;;;;;;;;6.89;57.21;98111.00;110499;1242;72247;-61
2024/01/20 09:24:12;;;;;;;;;;;;;;;7.71;52.75;98113.27;110405;1241;69787;-61
2024/01/20 09:26:41;;;;;;;;;;;;;;;7.99;51.67;98114.28;110430;1241;69783;-61
2024/01/20 09:29:10;;;;;;;;;;;;;;;8.05;51.48;98119.20;110393;1242;60547;-61
2024/01/20 09:31:40;;;;;;;;;;;;;;;8.02;50.42;98114.80;110360;1238;60467;-61
2024/01/20 09:34:10;;;;;;;;;;;;;;;8.13;50.61;98116.01;110481;1238;71424;-61
2024/01/20 09:36:40;;;;;;;;;;;;;;;8.93;49.78;98118.03;110536;1241;69275;-60
2024/01/20 09:39:12;;;;;;;;;;;;;;;9.67;51.03;98124.23;110456;1238;67710;-60
2024/01/20 09:41:43;;;;;;;;;;;;;;;10.12;49.50;98129.50;110375;1241;60540;-61
2024/01/20 09:44:14;;;;;;;;;;;;;;;10.57;49.52;98125.36;110498;1245;60918;-60
2024/01/20 09:46:44;;;;;;;;;;;;;;;10.48;46.83;98124.39;110420;1238;72147;-60
2024/01/20 09:49:13;;;;;;;;;;;;;;;10.64;47.08;98124.61;110545;1241;69779;-60
2024/01/20 09:51:49;;;;;;;;;;;;;;;10.55;45.12;98128.29;110575;1242;69115;-60
2024/01/20 09:54:21;;;;;;;;;;;;;;;10.84;45.79;98132.23;110472;1241;60462;-60
2024/01/20 09:56:50;;;;;;;;;;;;;;;11.07;43.75;98133.25;110428;1238;60485;-60
2024/01/20 09:59:21;;;;;;;;;;;;;;;11.26;43.87;98135.00;110474;1238;72745;-60
2024/01/20 10:01:52;;;;;;;;;;;;;;;11.72;45.47;98140.41;110385;1240;69040;-60
2024/01/20 10:04:21;;;;;;;;;;;;;;;11.13;42.83;98136.01;110381;1238;69871;-59
2024/01/20 10:06:51;;;;;;;;;;;;;;;11.29;42.37;98133.78;110415;1238;60550;-59
2024/01/20 10:09:20;;;;;;;;;;;;;;;11.00;42.50;98130.70;110412;1238;60936;-59
2024/01/20 10:11:50;;;;;;;;;;;;;;;11.50;43.28;98118.99;110481;1238;71220;-59
2024/01/20 10:14:19;;;;;;;;;;;;;;;11.97;41.15;98123.23;110491;1241;69418;-59
2024/01/20 10:16:49;;;;;;;;;;;;;;;10.83;40.97;98131.77;110549;1241;69853;-59
2024/01/20 10:19:18;;;;;;;;;;;;;;;10.13;44.38;98131.10;110528;1238;60485;-59
2024/01/20 10:21:49;;;;;;;;;;;;;;;10.39;42.28;98126.04;110475;1241;60468;-60
2024/01/20 10:24:23;;;;;;;;;;;;;;;9.33;43.82;98126.70;110439;1238;72777;-59
2024/01/20 10:26:52;;;;;;;;;;;;;;;8.59;45.31;98130.41;110481;1242;69828;-60
2024/01/20 10:29:21;;;;;;;;;;;;;;;9.95;45.42;98132.19;110502;1238;69195;-59
2024/01/20 10:31:51;;;;;;;;;;;;;;;9.85;43.38;98129.15;110377;1241;60507;-60
2024/01/20 10:34:20;;;;;;;;;;;;;;;10.46;42.94;98127.65;110368;1241;60465;-59
2024/01/20 10:36:53;;;;;;;;;;;;;;;11.01;42.45;98120.55;110379;1241;72797;-59
2024/01/20 10:39:24;;;;;;;;;;;;;;;10.84;41.79;98127.34;110389;1241;69180;-59
2024/01/20 10:41:53;;;;;;;;;;;;;;;11.65;41.97;98128.31;110367;1240;69871;-59
2024/01/20 10:44:25;;;;;;;;;;;;;;;11.52;39.78;98127.91;110343;1242;60473;-59
2024/01/20 10:46:54;;;;;;;;;;;;;;;12.10;40.06;98135.29;110386;1241;60505;-59
2024/01/20 10:49:23;;;;;;;;;;;;;;;12.25;38.61;98136.84;110319;1238;73229;-59
2024/01/20 10:51:54;;;;;;;;;;;;;;;12.00;40.11;98135.44;110403;1241;68324;-59
2024/01/20 10:54:24;;;;;;;;;;;;;;;12.05;38.74;98133.48;110371;1242;69843;-59
2024/01/20 10:56:54;;;;;;;;;;;;;;;12.35;39.40;98135.30;110482;1239;60939;-59
2024/01/20 10:59:25;;;;;;;;;;;;;;;12.63;38.42;98137.18;110332;1242;60469;-59
2024/01/20 11:01:54;;;;;;;;;;;;;;;13.25;38.39;98140.36;110507;1241;72789;-59
2024/01/20 11:04:23;;;;;;;;;;;;;;;13.10;37.42;98139.89;109927;1241;592517;-58
2024/01/20 11:06:54;;;;;;;;;;;;;;;13.17;36.07;98138.66;110530;1241;69860;-60
2024/01/20 11:09:23;;;;;;;;;;;;;;;13.08;37.59;98132.86;110523;1241;60599;-60
2024/01/20 11:12:03;;;;;;;;;;;;;;;13.81;37.97;98133.96;110454;1241;60457;-61
2024/01/20 11:14:33;;;;;;;;;;;;;;;13.86;36.33;98132.38;110499;1241;72756;-61
2024/01/20 11:17:09;;;;;;;;;;;;;;;13.74;35.48;98134.52;110482;1238;68913;-61
2024/01/20 11:19:38;;;;;;;;;;;;;;;13.12;36.37;98128.50;110568;1241;68727;-60
2024/01/20 11:22:26;;;;;;;;;;;;;;;13.16;36.64;98124.75;110463;1238;60537;-60
2024/01/20 11:24:56;;;;;;;;;;;;;;;13.15;35.82;98126.95;110400;1241;60532;-59
2024/01/20 11:27:26;;;;;;;;;;;;;;;12.36;36.38;98126.02;110499;1242;71790;-59
2024/01/20 11:30:05;;;;;;;;;;;;;;;11.30;37.67;98127.64;110379;1238;69792;-59
2024/01/20 11:32:34;;;;;;;;;;;;;;;11.04;38.48;98131.02;110389;1238;69310;-60
2024/01/20 11:35:04;;;;;;;;;;;;;;;11.42;37.95;98131.52;110450;1241;60566;-60
2024/01/20 11:37:33;;;;;;;;;;;;;;;11.03;39.33;98131.77;110426;1241;60482;-60
2024/01/20 11:40:10;;;;;;;;;;;;;;;10.70;39.85;98128.92;110331;1242;71597;-60
2024/01/20 11:42:39;;;;;;;;;;;;;;;11.67;39.07;98113.46;110352;1240;69278;-60
2024/01/20 11:45:08;;;;;;;;;;;;;;;12.57;38.20;98114.55;110390;1241;67815;-60
2024/01/20 11:47:37;;;;;;;;;;;;;;;12.55;36.87;98115.73;110454;1241;60492;-60
2024/01/20 11:50:06;;;;;;;;;;;;;;;13.18;37.05;98122.52;110367;1241;60492;-60
2024/01/20 11:52:35;;;;;;;;;;;;;;;13.18;35.67;98125.13;110357;1238;72823;-60
2024/01/20 11:55:04;;;;;;;;;;;;;;;13.56;35.46;98128.27;110433;1241;69082;-60
2024/01/20 11:57:33;;;;;;;;;;;;;;;12.59;35.30;98132.09;110379;1248;69404;-60
2024/01/20 12:00:03;;;;;;;;;;;;;;;11.73;36.14;98137.80;110532;1238;60480;-60
2024/01/20 12:02:33;;;;;;;;;;;;;;;10.77;37.38;98139.48;110490;1238;60526;-60
2024/01/20 12:05:02;;;;;;;;;;;;;;;10.32;39.13;98140.84;110393;1241;72758;-60
2024/01/20 12:07:43;;;;;;;;;;;;;;;10.69;39.37;98144.38;110356;1238;68694;-60
2024/01/20 12:10:14;;;;;;;;;;;;;;;10.45;38.77;98135.34;110443;1241;68834;-59
2024/01/20 12:12:45;;;;;;;;;;;;;;;9.86;39.65;98137.08;110334;1241;60505;-59
2024/01/20 12:15:14;;;;;;;;;;;;;;;9.99;39.76;98138.61;110385;1241;60476;-61
2024/01/20 12:17:44;;;;;;;;;;;;;;;10.09;40.14;98137.51;110470;1241;72736;-59
2024/01/20 12:20:13;;;;;;;;;;;;;;;10.11;40.46;98138.77;110473;1241;69363;-59
2024/01/20 12:22:43;;;;;;;;;;;;;;;9.04;41.78;98136.80;110385;1241;68711;-60
2024/01/20 12:25:15;;;;;;;;;;;;;;;8.86;42.23;98135.95;110376;1242;60490;-60
2024/01/20 12:27:44;;;;;;;;;;;;;;;8.30;42.33;98138.02;110531;1241;60534;-59
2024/01/20 12:30:14;;;;;;;;;;;;;;;9.11;42.18;98136.62;110546;1242;72695;-60
2024/01/20 12:32:43;;;;;;;;;;;;;;;10.11;40.80;98136.36;110509;1241;69153;-60
2024/01/20 12:35:12;;;;;;;;;;;;;;;10.80;39.63;98135.12;110386;1238;69823;-59
2024/01/20 12:37:41;;;;;;;;;;;;;;;10.81;39.28;98135.92;110435;1240;60469;-60
2024/01/20 12:40:11;;;;;;;;;;;;;;;11.58;38.48;98133.11;110384;1242;60458;-60
2024/01/20 12:42:40;;;;;;;;;;;;;;;10.89;37.03;98133.86;110474;1238;72249;-60
2024/01/20 12:45:11;;;;;;;;;;;;;;;9.13;39.46;98137.57;110499;1241;68254;-59
2024/01/20 12:47:40;;;;;;;;;;;;;;;8.20;41.15;98137.61;110501;1241;69845;-62